Time;durP1;ratioP1;P1;durP2;ratioP2;P2;SDS_P1;SDS_P2;PMS_P1;PMS_P2;Temp;Humidity;BMP_temperature;BMP_pressure;BME280_temperature;BME280_humidity;BME280_pressure;Samples;Min_cycle;Max_cycle;Signal;HPM_P1;HPM_P2
2021/06/07 00:01:07;;;;;;;4.53;2.85;;;19.70;65.60;;;;;;5102168;28;20216;-75
2021/06/07 00:03:34;;;;;;;4.55;2.63;;;19.70;65.70;;;;;;5106040;28;20193;-74
2021/06/07 00:06:00;;;;;;;6.32;2.28;;;19.60;65.70;;;;;;5104333;28;20780;-74
2021/06/07 00:08:28;;;;;;;3.22;1.90;;;20.10;65.30;;;;;;5107602;28;20220;-74
2021/06/07 00:10:55;;;;;;;4.47;2.20;;;19.90;65.50;;;;;;5106051;27;20204;-73
2021/06/07 00:13:24;;;;;;;3.08;2.28;;;19.70;65.90;;;;;;5106809;28;20209;-74
2021/06/07 00:15:52;;;;;;;5.18;2.42;;;19.60;66.30;;;;;;5102664;28;20288;-73
2021/06/07 00:18:20;;;;;;;5.03;2.45;;;19.50;66.60;;;;;;5106393;28;20688;-74
2021/06/07 00:20:49;;;;;;;5.10;2.70;;;19.50;67.00;;;;;;5104593;28;20244;-73
2021/06/07 00:23:17;;;;;;;4.30;2.22;;;19.40;67.10;;;;;;5107322;28;20204;-74
2021/06/07 00:25:46;;;;;;;5.90;2.73;;;19.40;68.10;;;;;;5105399;28;20412;-73
2021/06/07 00:28:12;;;;;;;4.22;2.40;;;19.80;67.30;;;;;;5105029;28;20425;-75
2021/06/07 00:30:39;;;;;;;3.92;1.90;;;20.10;65.90;;;;;;5104758;28;20197;-74
2021/06/07 00:33:06;;;;;;;5.10;2.20;;;19.80;66.50;;;;;;5104787;28;20607;-73
2021/06/07 00:35:33;;;;;;;4.22;2.20;;;19.60;67.00;;;;;;5101526;28;20213;-73
2021/06/07 00:37:59;;;;;;;4.50;2.30;;;19.50;67.30;;;;;;5103546;28;20273;-74
2021/06/07 00:40:27;;;;;;;3.25;2.40;;;19.40;67.70;;;;;;5104716;28;20198;-74
2021/06/07 00:42:55;;;;;;;3.88;2.20;;;19.30;68.00;;;;;;5102831;28;20205;-72
2021/06/07 00:45:24;;;;;;;4.47;2.40;;;19.20;68.20;;;;;;5105479;28;21004;-74
2021/06/07 00:47:51;;;;;;;4.88;2.20;;;19.20;68.40;;;;;;5107211;28;20201;-74
2021/06/07 00:50:27;;;;;;;5.38;2.17;;;19.10;68.60;;;;;;5105675;28;20201;-73
2021/06/07 00:53:04;;;;;;;6.15;2.30;;;19.10;68.90;;;;;;5104710;28;20984;-73
2021/06/07 00:55:33;;;;;;;3.60;2.33;;;19.10;69.10;;;;;;5106744;28;20213;-73
2021/06/07 00:58:02;;;;;;;5.70;2.58;;;19.00;69.30;;;;;;5098713;28;20209;-74
2021/06/07 01:00:29;;;;;;;5.20;2.50;;;18.90;69.50;;;;;;5100957;28;20297;-74
2021/06/07 01:02:57;;;;;;;3.55;2.28;;;18.90;69.70;;;;;;5095998;28;20190;-73
2021/06/07 01:05:24;;;;;;;5.65;2.63;;;18.80;70.70;;;;;;5103892;28;20209;-75
2021/06/07 01:07:51;;;;;;;6.63;2.25;;;18.80;70.00;;;;;;5104505;28;20200;-74
2021/06/07 01:10:18;;;;;;;4.18;2.13;;;18.80;70.30;;;;;;5104847;28;20193;-75
2021/06/07 01:12:45;;;;;;;3.80;2.33;;;18.70;70.50;;;;;;5106548;28;20221;-75
2021/06/07 01:15:14;;;;;;;5.13;2.40;;;18.70;70.60;;;;;;5105959;28;20200;-73
2021/06/07 01:17:42;;;;;;;6.38;2.88;;;18.60;70.80;;;;;;5104561;28;20212;-74
2021/06/07 01:20:11;;;;;;;5.90;3.13;;;18.60;71.00;;;;;;5105606;28;20613;-74
2021/06/07 01:22:40;;;;;;;4.47;2.75;;;18.60;71.20;;;;;;5106285;28;20200;-75
2021/06/07 01:25:11;;;;;;;3.90;2.47;;;18.50;71.30;;;;;;5133848;27;20258;-75
2021/06/07 01:27:38;;;;;;;4.95;2.40;;;18.50;71.50;;;;;;5106988;28;20257;-74
2021/06/07 01:30:11;;;;;;;6.60;1.90;;;18.50;71.70;;;;;;5082356;28;20248;-74
2021/06/07 01:32:37;;;;;;;4.65;2.50;;;18.40;71.70;;;;;;5102880;28;20217;-76
2021/06/07 01:35:06;;;;;;;4.15;2.30;;;18.40;71.70;;;;;;5103261;28;20209;-73
2021/06/07 01:37:32;;;;;;;3.47;2.40;;;18.40;71.80;;;;;;5107094;28;20216;-74
2021/06/07 01:40:00;;;;;;;4.20;2.40;;;18.30;71.90;;;;;;5105017;28;20269;-73
2021/06/07 01:42:27;;;;;;;6.68;2.40;;;18.30;72.00;;;;;;5107842;28;20189;-74
2021/06/07 01:44:53;;;;;;;3.35;2.20;;;18.20;72.20;;;;;;5102470;28;20259;-75
2021/06/07 01:47:19;;;;;;;3.58;2.30;;;18.20;72.40;;;;;;5106724;28;20279;-74
2021/06/07 01:49:47;;;;;;;4.60;2.30;;;18.20;72.40;;;;;;5106447;28;20229;-73
2021/06/07 01:52:15;;;;;;;4.63;2.53;;;18.20;72.70;;;;;;5104880;28;20194;-74
2021/06/07 01:54:42;;;;;;;5.97;2.28;;;18.10;72.80;;;;;;5105306;28;22127;-75
2021/06/07 01:57:10;;;;;;;4.90;2.70;;;18.10;73.00;;;;;;5103717;28;20197;-75
2021/06/07 01:59:36;;;;;;;5.45;2.60;;;18.10;73.10;;;;;;5102659;28;20232;-74
2021/06/07 02:02:06;;;;;;;4.50;2.50;;;18.00;73.10;;;;;;5104157;28;20205;-75
2021/06/07 02:04:33;;;;;;;3.58;2.22;;;18.00;73.20;;;;;;5103167;28;20212;-76
2021/06/07 02:07:00;;;;;;;3.83;2.30;;;18.00;73.40;;;;;;5104782;28;20193;-76
2021/06/07 02:09:27;;;;;;;6.72;2.42;;;17.90;73.60;;;;;;5102647;28;20205;-74
2021/06/07 02:11:53;;;;;;;4.22;2.53;;;17.90;73.80;;;;;;5104705;28;20193;-73
2021/06/07 02:14:21;;;;;;;4.38;2.40;;;17.90;73.90;;;;;;5100929;28;20228;-74
2021/06/07 02:16:48;;;;;;;4.93;2.60;;;17.80;74.00;;;;;;5103240;28;20198;-77
2021/06/07 02:19:14;;;;;;;4.78;2.55;;;17.80;74.10;;;;;;5099202;28;20209;-75
2021/06/07 02:21:41;;;;;;;4.47;2.38;;;17.80;74.20;;;;;;5104151;28;20680;-74
2021/06/07 02:24:09;;;;;;;3.58;2.28;;;17.80;74.20;;;;;;5108390;28;20618;-74
2021/06/07 02:26:36;;;;;;;3.97;2.40;;;17.70;74.20;;;;;;5107658;28;20654;-76
2021/06/07 02:29:05;;;;;;;3.85;2.50;;;17.70;74.20;;;;;;5103979;28;20244;-73
2021/06/07 02:31:34;;;;;;;3.80;2.42;;;17.70;74.30;;;;;;5101081;28;20213;-76
2021/06/07 02:34:03;;;;;;;4.90;2.60;;;17.60;74.40;;;;;;5109251;28;20232;-74
2021/06/07 02:36:31;;;;;;;4.07;2.50;;;17.60;74.50;;;;;;5109492;28;20212;-74
2021/06/07 02:38:58;;;;;;;6.03;2.60;;;17.60;74.70;;;;;;5109117;28;20219;-75
2021/06/07 02:41:25;;;;;;;3.75;2.10;;;17.50;74.80;;;;;;5107380;28;20666;-72
2021/06/07 02:43:53;;;;;;;4.90;2.63;;;17.50;75.00;;;;;;5110263;28;20197;-77
2021/06/07 02:46:20;;;;;;;3.80;2.17;;;17.50;76.00;;;;;;5108635;28;20204;-79
2021/06/07 02:48:48;;;;;;;5.20;2.40;;;17.50;75.30;;;;;;5138962;27;20212;-72
2021/06/07 02:51:16;;;;;;;4.82;2.50;;;17.50;75.30;;;;;;5108706;28;20215;-78
2021/06/07 02:53:42;;;;;;;3.25;2.60;;;17.50;75.40;;;;;;5106714;28;20229;-77
2021/06/07 02:56:09;;;;;;;3.17;2.33;;;17.40;75.50;;;;;;5103391;28;20204;-77
2021/06/07 02:58:35;;;;;;;3.78;2.58;;;17.40;75.50;;;;;;5105027;28;20209;-77
2021/06/07 03:01:06;;;;;;;3.30;2.45;;;17.40;75.60;;;;;;5105379;28;20204;-75
2021/06/07 03:03:32;;;;;;;2.90;2.17;;;17.40;76.50;;;;;;5103080;28;20205;-75
2021/06/07 03:06:00;;;;;;;3.40;2.30;;;17.40;75.70;;;;;;5105075;28;20254;-73
2021/06/07 03:08:29;;;;;;;4.55;2.40;;;17.30;75.70;;;;;;5103488;28;20208;-75
2021/06/07 03:10:57;;;;;;;3.88;2.60;;;17.30;75.60;;;;;;5107848;28;20715;-73
2021/06/07 03:13:24;;;;;;;4.07;2.40;;;17.30;75.70;;;;;;5108553;28;20205;-74
2021/06/07 03:15:52;;;;;;;4.20;2.40;;;17.30;75.90;;;;;;5109876;28;20209;-75
2021/06/07 03:18:19;;;;;;;3.50;2.65;;;17.20;75.90;;;;;;5106191;28;20258;-75
2021/06/07 03:20:45;;;;;;;5.40;2.67;;;17.20;76.00;;;;;;5106127;28;20305;-76
2021/06/07 03:23:16;;;;;;;3.05;2.40;;;17.20;76.10;;;;;;5107137;28;20202;-74
2021/06/07 03:25:44;;;;;;;7.70;2.60;;;17.20;76.00;;;;;;5106088;28;20205;-74
2021/06/07 03:28:11;;;;;;;3.45;2.30;;;17.20;76.00;;;;;;5106992;28;21366;-75
2021/06/07 03:30:38;;;;;;;4.05;2.50;;;17.10;76.00;;;;;;5104486;28;20197;-74
2021/06/07 03:33:05;;;;;;;2.90;2.60;;;17.10;76.00;;;;;;5103347;28;20593;-74
2021/06/07 03:35:32;;;;;;;5.75;2.65;;;17.20;76.00;;;;;;5101787;28;20206;-73
2021/06/07 03:37:59;;;;;;;4.55;2.92;;;17.10;76.00;;;;;;5108675;28;20209;-77
2021/06/07 03:40:28;;;;;;;3.30;2.60;;;17.10;76.00;;;;;;5105836;28;20660;-74
2021/06/07 03:42:55;;;;;;;5.68;3.10;;;17.10;76.20;;;;;;5107951;28;20193;-75
2021/06/07 03:45:21;;;;;;;3.75;2.95;;;17.10;76.10;;;;;;5106729;28;20213;-76
2021/06/07 03:47:48;;;;;;;7.50;3.20;;;17.10;76.10;;;;;;5106340;28;20238;-78
2021/06/07 03:50:17;;;;;;;5.00;2.90;;;17.10;76.30;;;;;;5106520;28;20204;-76
2021/06/07 03:52:44;;;;;;;9.00;4.15;;;17.10;76.30;;;;;;5106634;28;20617;-76
2021/06/07 03:55:12;;;;;;;6.85;3.40;;;17.00;76.30;;;;;;5106308;28;20251;-75
2021/06/07 03:57:41;;;;;;;6.18;3.20;;;17.00;76.40;;;;;;5102308;28;20246;-78
2021/06/07 04:00:10;;;;;;;5.32;3.13;;;17.00;76.60;;;;;;5105266;28;20194;-76
2021/06/07 04:02:41;;;;;;;4.80;3.08;;;17.00;76.70;;;;;;5103888;28;20201;-76
2021/06/07 04:05:09;;;;;;;7.00;3.20;;;17.00;76.90;;;;;;5107911;28;20577;-77
2021/06/07 04:07:35;;;;;;;6.93;3.42;;;17.00;77.10;;;;;;5105317;28;20205;-78
2021/06/07 04:10:03;;;;;;;5.00;3.33;;;17.00;77.30;;;;;;5105845;28;20201;-78
2021/06/07 04:12:30;;;;;;;6.95;3.20;;;17.00;77.40;;;;;;5105703;28;20205;-77
2021/06/07 04:14:57;;;;;;;6.65;3.97;;;17.00;77.50;;;;;;5106342;28;20722;-76
2021/06/07 04:17:24;;;;;;;6.05;3.45;;;17.00;77.60;;;;;;5105376;28;20666;-77
2021/06/07 04:19:50;;;;;;;6.28;3.45;;;17.00;77.80;;;;;;5103854;28;20258;-75
2021/06/07 04:22:17;;;;;;;7.80;3.70;;;17.00;78.00;;;;;;5105807;28;20201;-78
2021/06/07 04:24:45;;;;;;;5.10;3.47;;;17.00;78.10;;;;;;5103896;28;20205;-75
2021/06/07 04:27:13;;;;;;;6.30;3.67;;;17.00;78.30;;;;;;5104199;28;20284;-76
2021/06/07 04:29:39;;;;;;;6.10;3.80;;;17.00;78.40;;;;;;5103733;28;20282;-74
2021/06/07 04:32:08;;;;;;;6.60;3.88;;;17.00;78.50;;;;;;5101682;28;20217;-76
2021/06/07 04:34:34;;;;;;;5.68;3.85;;;17.00;78.60;;;;;;5104602;28;20685;-74
2021/06/07 04:37:01;;;;;;;8.98;3.83;;;17.00;78.80;;;;;;5105251;28;20198;-75
2021/06/07 04:39:27;;;;;;;7.53;3.92;;;17.00;79.00;;;;;;5107661;28;20197;-75
2021/06/07 04:41:54;;;;;;;8.13;4.00;;;17.00;79.20;;;;;;5105810;28;20213;-74
2021/06/07 04:44:20;;;;;;;6.03;3.85;;;17.00;79.30;;;;;;5104888;28;20598;-73
2021/06/07 04:46:46;;;;;;;5.03;4.07;;;17.00;79.50;;;;;;5104178;28;20559;-76
2021/06/07 04:49:14;;;;;;;7.90;3.92;;;17.00;79.70;;;;;;5107393;28;20205;-75
2021/06/07 04:51:40;;;;;;;7.28;3.95;;;17.10;79.90;;;;;;5106621;28;20207;-73
2021/06/07 04:54:07;;;;;;;5.15;3.83;;;17.10;80.10;;;;;;5106252;28;20221;-74
2021/06/07 04:56:34;;;;;;;5.15;3.50;;;17.10;80.30;;;;;;5105901;28;20217;-74
2021/06/07 04:59:00;;;;;;;6.60;4.80;;;17.10;80.60;;;;;;5104965;28;20209;-75
2021/06/07 05:01:27;;;;;;;7.63;4.18;;;17.10;80.70;;;;;;5105142;28;20197;-75
2021/06/07 05:03:53;;;;;;;12.35;5.00;;;17.10;81.10;;;;;;5099935;27;20205;-74
2021/06/07 05:06:21;;;;;;;5.82;4.10;;;17.20;81.30;;;;;;5104543;28;20220;-73
2021/06/07 05:08:47;;;;;;;6.63;4.20;;;17.20;81.40;;;;;;5105413;28;21003;-73
2021/06/07 05:11:15;;;;;;;7.93;4.00;;;17.20;81.60;;;;;;5104628;28;20465;-74
2021/06/07 05:13:42;;;;;;;8.48;4.22;;;17.20;81.70;;;;;;5104535;28;20217;-75
2021/06/07 05:16:08;;;;;;;8.48;4.05;;;17.20;81.80;;;;;;5104468;28;20209;-74
2021/06/07 05:18:35;;;;;;;9.43;4.18;;;17.30;82.00;;;;;;5107074;28;20205;-76
2021/06/07 05:21:01;;;;;;;6.93;4.10;;;17.30;82.10;;;;;;5104027;28;20574;-75
2021/06/07 05:23:29;;;;;;;7.40;3.93;;;17.30;82.20;;;;;;5105634;28;20423;-75
2021/06/07 05:25:57;;;;;;;8.75;4.05;;;17.70;82.40;;;;;;5103238;28;20431;-75
2021/06/07 05:28:24;;;;;;;4.57;3.40;;;18.10;81.10;;;;;;5105434;28;20312;-74
2021/06/07 05:30:51;;;;;;;6.93;4.18;;;17.80;81.70;;;;;;5106348;28;20193;-75
2021/06/07 05:33:18;;;;;;;7.60;3.83;;;17.70;82.30;;;;;;5107037;28;20259;-74
2021/06/07 05:35:47;;;;;;;6.93;3.53;;;17.60;82.60;;;;;;5105012;28;20423;-76
2021/06/07 05:38:14;;;;;;;6.13;3.60;;;18.00;82.20;;;;;;5102797;28;20424;-73
2021/06/07 05:40:44;;;;;;;5.87;3.43;;;18.40;81.10;;;;;;5102712;28;20896;-74
2021/06/07 05:43:11;;;;;;;5.07;3.15;;;18.50;80.40;;;;;;5099832;28;20459;-73
2021/06/07 05:45:38;;;;;;;7.90;3.30;;;18.60;80.00;;;;;;5107510;28;20422;-74
2021/06/07 05:48:06;;;;;;;5.85;3.28;;;18.80;79.60;;;;;;5108339;28;20419;-74
2021/06/07 05:50:34;;;;;;;6.53;3.00;;;18.80;79.30;;;;;;5107114;28;20439;-74
2021/06/07 05:53:00;;;;;;;6.55;3.08;;;18.90;78.90;;;;;;5105541;28;21365;-76
2021/06/07 05:55:28;;;;;;;9.27;6.55;;;19.00;78.80;;;;;;5108676;28;20423;-74
2021/06/07 05:57:59;;;;;;;7.72;3.42;;;19.00;78.60;;;;;;5111145;28;20811;-74
2021/06/07 06:00:27;;;;;;;5.53;2.80;;;19.10;78.40;;;;;;5110678;28;20400;-73
2021/06/07 06:02:56;;;;;;;6.73;2.80;;;19.10;78.30;;;;;;5111807;28;20400;-75
2021/06/07 06:05:22;;;;;;;6.97;2.70;;;19.20;78.30;;;;;;5112278;28;20404;-75
2021/06/07 06:07:49;;;;;;;4.63;2.58;;;19.20;77.70;;;;;;5111871;28;20412;-75
2021/06/07 06:10:17;;;;;;;6.03;2.93;;;19.30;78.00;;;;;;5111647;28;20407;-75
2021/06/07 06:12:44;;;;;;;4.88;2.40;;;19.30;77.80;;;;;;5110014;28;20420;-72
2021/06/07 06:15:13;;;;;;;3.88;2.17;;;19.30;77.30;;;;;;5111152;28;20408;-73
2021/06/07 06:17:40;;;;;;;3.28;2.10;;;19.30;76.80;;;;;;5110068;28;20523;-73
2021/06/07 06:20:08;;;;;;;5.15;2.33;;;19.30;76.00;;;;;;5107958;28;20427;-74
2021/06/07 06:22:35;;;;;;;8.82;2.30;;;19.40;76.10;;;;;;5110215;28;20506;-74
2021/06/07 06:25:02;;;;;;;3.97;2.05;;;19.40;75.70;;;;;;5111675;28;20407;-74
2021/06/07 06:27:28;;;;;;;4.95;2.33;;;19.40;75.20;;;;;;5111040;28;20456;-73
2021/06/07 06:29:55;;;;;;;4.60;2.03;;;19.50;75.30;;;;;;5111624;28;20404;-73
2021/06/07 06:32:23;;;;;;;3.95;1.73;;;19.50;74.70;;;;;;5110988;28;20411;-74
2021/06/07 06:34:49;;;;;;;5.43;2.00;;;19.50;73.80;;;;;;5109990;28;20431;-75
2021/06/07 06:37:16;;;;;;;4.18;2.20;;;19.50;71.60;;;;;;5111138;28;21337;-74
2021/06/07 06:39:42;;;;;;;4.72;2.00;;;19.50;73.60;;;;;;5111593;28;20541;-75
2021/06/07 06:42:10;;;;;;;3.45;1.95;;;19.50;72.00;;;;;;5110025;28;20423;-77
2021/06/07 06:44:36;;;;;;;4.05;1.70;;;19.60;71.20;;;;;;5111374;28;20469;-77
2021/06/07 06:47:04;;;;;;;5.97;2.33;;;19.60;68.90;;;;;;5110882;28;20412;-74
2021/06/07 06:49:32;;;;;;;4.65;2.50;;;19.60;70.10;;;;;;5111481;28;20418;-76
2021/06/07 06:51:59;;;;;;;4.53;2.60;;;19.60;70.10;;;;;;5109735;28;20510;-77
2021/06/07 06:54:26;;;;;;;5.03;2.80;;;19.60;70.50;;;;;;5111910;28;20818;-75
2021/06/07 06:56:52;;;;;;;6.45;3.00;;;19.30;71.50;;;;;;5112451;28;20204;-76
2021/06/07 06:59:19;;;;;;;7.68;3.78;;;19.10;72.30;;;;;;5112483;28;20202;-76
2021/06/07 07:01:45;;;;;;;6.20;4.05;;;18.90;72.90;;;;;;5108583;28;20201;-76
2021/06/07 07:04:11;;;;;;;4.55;3.30;;;18.70;73.30;;;;;;5112733;28;20208;-76
2021/06/07 07:06:40;;;;;;;7.78;4.15;;;18.70;73.90;;;;;;5112811;28;20616;-75
2021/06/07 07:09:07;;;;;;;7.45;4.65;;;18.60;74.20;;;;;;5109695;28;20204;-74
2021/06/07 07:11:33;;;;;;;10.13;4.90;;;18.50;74.50;;;;;;5111826;28;20201;-74
2021/06/07 07:14:01;;;;;;;5.30;4.43;;;18.60;74.80;;;;;;5111351;28;20269;-76
2021/06/07 07:16:27;;;;;;;8.00;4.57;;;18.50;75.00;;;;;;5104222;28;20289;-75
2021/06/07 07:18:54;;;;;;;8.32;4.72;;;18.50;75.40;;;;;;5109291;28;20206;-74
2021/06/07 07:21:21;;;;;;;7.00;4.40;;;18.50;75.60;;;;;;5107743;28;20237;-75
2021/06/07 07:23:48;;;;;;;5.20;4.05;;;18.50;76.00;;;;;;5106645;28;20212;-76
2021/06/07 07:26:15;;;;;;;9.85;4.00;;;18.40;76.10;;;;;;5106697;28;20193;-77
2021/06/07 07:28:42;;;;;;;5.68;3.88;;;18.40;76.30;;;;;;5105336;28;20753;-75
2021/06/07 07:31:08;;;;;;;7.75;3.30;;;18.40;76.40;;;;;;5104901;28;20640;-76
2021/06/07 07:33:38;;;;;;;4.15;3.42;;;18.40;76.40;;;;;;5108274;28;20217;-74
2021/06/07 07:36:06;;;;;;;8.02;3.20;;;18.50;76.10;;;;;;5108430;28;20212;-75
2021/06/07 07:38:33;;;;;;;7.25;3.42;;;18.50;75.60;;;;;;5108575;28;20197;-73
2021/06/07 07:41:00;;;;;;;3.78;2.65;;;18.50;75.40;;;;;;5105305;28;20216;-73
2021/06/07 07:43:27;;;;;;;4.78;2.30;;;18.50;75.20;;;;;;5107535;28;20235;-74
2021/06/07 07:45:54;;;;;;;6.05;2.58;;;18.60;75.00;;;;;;5103313;28;20194;-75
2021/06/07 07:48:20;;;;;;;6.10;2.60;;;18.60;74.20;;;;;;5109592;28;20202;-75
2021/06/07 07:50:48;;;;;;;5.47;2.17;;;18.70;73.80;;;;;;5106913;28;20205;-74
2021/06/07 07:53:15;;;;;;;4.43;2.08;;;18.70;73.50;;;;;;5106376;28;20209;-74
2021/06/07 07:55:42;;;;;;;5.03;2.60;;;18.70;73.30;;;;;;5109134;28;20665;-75
2021/06/07 07:58:11;;;;;;;5.57;2.65;;;18.80;73.20;;;;;;5107216;28;20262;-76
2021/06/07 08:00:39;;;;;;;2.70;2.17;;;18.80;73.00;;;;;;5106520;28;20266;-74
2021/06/07 08:03:05;;;;;;;4.63;2.42;;;18.80;72.80;;;;;;5105566;28;20202;-74
2021/06/07 08:05:33;;;;;;;5.03;2.35;;;18.90;72.80;;;;;;5108145;28;20204;-73
2021/06/07 08:08:00;;;;;;;4.78;2.53;;;18.90;72.70;;;;;;5107660;28;20208;-74
2021/06/07 08:10:27;;;;;;;6.25;2.65;;;18.90;72.50;;;;;;5106253;28;20201;-76
2021/06/07 08:12:54;;;;;;;5.03;2.40;;;19.00;72.40;;;;;;5100747;28;20262;-76
2021/06/07 08:15:22;;;;;;;5.80;2.50;;;19.00;72.30;;;;;;5102607;28;20701;-76
2021/06/07 08:17:48;;;;;;;3.50;2.53;;;19.00;72.40;;;;;;5109175;28;20211;-77
2021/06/07 08:20:19;;;;;;;4.55;2.90;;;19.10;72.20;;;;;;5105205;27;20202;-75
2021/06/07 08:22:50;;;;;;;4.43;3.00;;;19.10;71.40;;;;;;5108424;28;20201;-75
2021/06/07 08:25:17;;;;;;;4.55;2.90;;;19.20;70.60;;;;;;5104593;28;20209;-76
2021/06/07 08:27:43;;;;;;;4.05;3.03;;;19.20;70.00;;;;;;5107385;28;20193;-76
2021/06/07 08:30:11;;;;;;;7.03;2.90;;;19.30;69.70;;;;;;5103692;28;20229;-76
2021/06/07 08:32:39;;;;;;;5.85;2.90;;;19.30;69.20;;;;;;5106006;28;20213;-75
2021/06/07 08:35:08;;;;;;;6.28;3.10;;;19.30;69.00;;;;;;5105980;28;20216;-74
2021/06/07 08:37:34;;;;;;;6.40;3.67;;;19.40;69.60;;;;;;5104078;28;20778;-74
2021/06/07 08:40:01;;;;;;;4.18;3.70;;;19.50;68.60;;;;;;5103680;28;20202;-75
2021/06/07 08:42:27;;;;;;;5.65;3.95;;;19.50;68.30;;;;;;5137245;27;20205;-74
2021/06/07 08:44:54;;;;;;;5.72;3.97;;;19.60;68.30;;;;;;5103098;28;20197;-75
2021/06/07 08:47:21;;;;;;;7.65;4.30;;;19.60;68.20;;;;;;5101939;28;20676;-74
2021/06/07 08:49:48;;;;;;;5.47;3.50;;;19.70;68.10;;;;;;5105383;28;20193;-74
2021/06/07 08:52:18;;;;;;;10.73;6.20;;;19.80;68.10;;;;;;5103458;28;20571;-75
2021/06/07 08:54:45;;;;;;;9.50;3.90;;;19.80;68.00;;;;;;5103414;28;20228;-74
2021/06/07 08:57:11;;;;;;;5.35;3.92;;;19.80;67.80;;;;;;5105183;28;20202;-73
2021/06/07 08:59:38;;;;;;;9.35;3.97;;;19.90;68.40;;;;;;5105703;28;20201;-76
2021/06/07 09:02:04;;;;;;;8.50;4.55;;;20.00;67.20;;;;;;5106448;28;20206;-77
2021/06/07 09:04:32;;;;;;;7.15;4.00;;;20.00;66.90;;;;;;5102714;28;20205;-75
2021/06/07 09:07:03;;;;;;;7.72;4.18;;;20.10;66.70;;;;;;5103440;28;20229;-76
2021/06/07 09:09:30;;;;;;;7.57;4.70;;;20.10;66.70;;;;;;5133434;27;20224;-76
2021/06/07 09:12:00;;;;;;;8.82;5.32;;;20.20;66.90;;;;;;5105097;28;20683;-74
2021/06/07 09:14:29;;;;;;;10.15;5.05;;;20.20;67.10;;;;;;5105579;28;20282;-73
2021/06/07 09:16:56;;;;;;;11.68;4.97;;;20.20;67.20;;;;;;5103005;28;20201;-74
2021/06/07 09:19:26;;;;;;;14.98;5.75;;;20.30;67.40;;;;;;5105075;28;22302;-74
2021/06/07 09:21:54;;;;;;;7.97;5.35;;;20.30;67.60;;;;;;5104036;28;20213;-75
2021/06/07 09:24:22;;;;;;;9.48;5.57;;;20.40;68.00;;;;;;5102601;28;20208;-73
2021/06/07 09:26:50;;;;;;;14.65;5.22;;;20.40;68.10;;;;;;5105201;28;20760;-73
2021/06/07 09:29:35;;;;;;;8.93;5.38;;;20.50;68.10;;;;;;5107192;28;20236;-73
2021/06/07 09:32:03;;;;;;;9.05;5.43;;;20.60;68.00;;;;;;5101902;28;20197;-74
2021/06/07 09:34:32;;;;;;;10.85;5.30;;;20.60;67.70;;;;;;5106429;28;20286;-75
2021/06/07 09:37:05;;;;;;;7.50;4.65;;;20.80;67.90;;;;;;5101413;28;20216;-75
2021/06/07 09:39:33;;;;;;;7.22;4.40;;;20.80;67.70;;;;;;5103589;28;20267;-76
2021/06/07 09:42:01;;;;;;;7.93;4.25;;;20.90;68.20;;;;;;5105765;28;20568;-75
2021/06/07 09:44:31;;;;;;;7.82;4.97;;;20.90;67.40;;;;;;5106270;28;20205;-75
2021/06/07 09:47:09;;;;;;;8.10;4.50;;;21.00;67.20;;;;;;5105491;28;20213;-75
2021/06/07 09:49:39;;;;;;;8.77;5.90;;;21.00;67.10;;;;;;5103908;28;20587;-74
2021/06/07 09:52:09;;;;;;;6.38;4.75;;;21.10;67.10;;;;;;5103713;28;20216;-76
2021/06/07 09:54:37;;;;;;;6.30;4.90;;;21.10;67.00;;;;;;5105909;28;20586;-74
2021/06/07 09:57:04;;;;;;;8.93;4.97;;;21.30;66.50;;;;;;5102972;28;20200;-73
2021/06/07 09:59:33;;;;;;;6.35;4.90;;;21.30;65.80;;;;;;5102823;28;20227;-75
2021/06/07 10:02:00;;;;;;;9.23;4.63;;;21.40;65.50;;;;;;5103474;28;20204;-76
2021/06/07 10:05:02;;;;;;;8.43;4.72;;;21.40;65.10;;;;;;5105469;28;20598;-76
2021/06/07 10:07:28;;;;;;;9.25;4.57;;;21.50;64.30;;;;;;5104302;28;20591;-77
2021/06/07 10:10:16;;;;;;;7.80;4.13;;;21.50;64.00;;;;;;5105308;28;20695;-78
2021/06/07 10:12:44;;;;;;;6.13;3.85;;;21.60;63.90;;;;;;5135712;27;20584;-75
2021/06/07 10:15:13;;;;;;;8.27;4.60;;;21.70;63.70;;;;;;5101865;28;20266;-75
2021/06/07 10:17:40;;;;;;;7.15;3.60;;;21.70;63.20;;;;;;5109670;28;20201;-74
2021/06/07 10:22:53;;;;;;;6.55;3.80;;;22.20;61.00;;;;;;5107821;28;20430;-75
2021/06/07 10:25:21;;;;;;;6.45;3.95;;;22.60;60.10;;;;;;5103508;28;20499;-76
2021/06/07 10:27:48;;;;;;;6.78;3.60;;;22.80;59.00;;;;;;5106962;28;20777;-78
2021/06/07 10:30:18;;;;;;;7.22;4.22;;;23.00;58.30;;;;;;5107488;28;20412;-74
2021/06/07 10:32:44;;;;;;;7.93;3.80;;;23.20;57.70;;;;;;5100759;28;20434;-75
2021/06/07 10:35:12;;;;;;;6.10;3.58;;;23.30;57.40;;;;;;5104766;28;20424;-76
2021/06/07 10:37:58;;;;;;;6.93;4.00;;;23.50;57.80;;;;;;5104730;28;20431;-76
2021/06/07 10:40:27;;;;;;;10.63;4.10;;;23.60;56.70;;;;;;5104397;28;20485;-75
2021/06/07 10:42:55;;;;;;;26.77;4.72;;;23.60;56.10;;;;;;5104482;28;20420;-74
2021/06/07 10:45:23;;;;;;;7.18;3.90;;;23.70;56.10;;;;;;5107167;28;20410;-76
2021/06/07 10:47:50;;;;;;;8.23;3.28;;;23.80;56.20;;;;;;5104068;28;20431;-75
2021/06/07 10:50:20;;;;;;;8.30;2.97;;;23.90;56.30;;;;;;5106778;28;20424;-76
2021/06/07 10:52:51;;;;;;;6.18;3.53;;;24.00;55.10;;;;;;5108695;28;20408;-77
2021/06/07 10:55:21;;;;;;;7.03;3.37;;;24.10;55.20;;;;;;5108407;28;20419;-79
2021/06/07 10:57:54;;;;;;;5.00;3.40;;;24.20;54.60;;;;;;5109010;28;20792;-76
2021/06/07 11:00:25;;;;;;;7.43;3.25;;;24.30;53.70;;;;;;5107991;28;20537;-76
2021/06/07 11:02:53;;;;;;;8.60;3.67;;;24.40;53.80;;;;;;5106733;28;20444;-75
2021/06/07 11:05:21;;;;;;;8.23;3.60;;;24.50;53.50;;;;;;5104344;28;20443;-76
2021/06/07 11:08:07;;;;;;;6.60;3.05;;;24.70;53.20;;;;;;5104538;28;20420;-77
2021/06/07 11:10:35;;;;;;;4.95;2.58;;;24.70;52.50;;;;;;5105779;28;20428;-78
2021/06/07 11:13:05;;;;;;;5.07;2.53;;;24.80;52.60;;;;;;5106084;27;21040;-74
2021/06/07 11:15:33;;;;;;;6.28;2.50;;;24.90;52.00;;;;;;5104526;28;20442;-75
2021/06/07 11:18:38;;;;;;;7.00;2.90;;;25.00;51.70;;;;;;5122181;27;20415;-74
2021/06/07 11:21:26;;;;;;;6.57;3.22;;;25.10;51.20;;;;;;5104273;28;20436;-78
2021/06/07 11:23:53;;;;;;;6.57;3.40;;;25.20;51.20;;;;;;5106568;28;20420;-76
2021/06/07 11:26:21;;;;;;;6.43;3.55;;;25.30;50.80;;;;;;5105916;28;20420;-75
2021/06/07 11:28:50;;;;;;;7.03;3.40;;;25.40;50.60;;;;;;5106822;28;20503;-75
2021/06/07 11:31:53;;;;;;;8.50;3.60;;;25.50;50.50;;;;;;5099846;27;20474;-77
2021/06/07 11:34:45;;;;;;;5.95;4.30;;;25.50;49.60;;;;;;5104259;28;20424;-76
2021/06/07 11:37:17;;;;;;;7.28;4.22;;;25.60;48.70;;;;;;5104315;28;20428;-74
2021/06/07 11:39:53;;;;;;;8.20;4.43;;;25.60;49.50;;;;;;5109070;28;20896;-74
2021/06/07 11:42:25;;;;;;;5.45;3.00;;;25.70;49.40;;;;;;5105830;28;20435;-75
2021/06/07 11:44:57;;;;;;;5.63;4.30;;;25.70;49.20;;;;;;5106810;28;20415;-74
2021/06/07 11:47:40;;;;;;;9.93;5.87;;;25.80;49.50;;;;;;5104356;28;20474;-75
2021/06/07 11:50:12;;;;;;;6.50;4.90;;;25.90;49.80;;;;;;5105508;28;20450;-75
2021/06/07 11:52:54;;;;;;;8.53;5.13;;;26.10;49.60;;;;;;5104172;28;20510;-74
2021/06/07 11:55:32;;;;;;;7.82;5.25;;;26.20;49.40;;;;;;5103982;27;20417;-74
2021/06/07 11:58:11;;;;;;;5.88;3.97;;;26.30;48.90;;;;;;5106010;28;20420;-75
2021/06/07 12:00:40;;;;;;;8.90;5.00;;;26.50;49.30;;;;;;5110063;28;20442;-74
2021/06/07 12:03:09;;;;;;;9.23;4.90;;;26.50;48.30;;;;;;5110325;28;20412;-74
2021/06/07 12:05:35;;;;;;;7.70;5.45;;;26.70;47.70;;;;;;5109203;28;20432;-73
2021/06/07 12:08:07;;;;;;;7.45;4.80;;;26.80;47.50;;;;;;5109428;28;20411;-73
2021/06/07 12:10:35;;;;;;;6.30;3.78;;;26.90;47.50;;;;;;5109491;28;20416;-77
2021/06/07 12:13:28;;;;;;;6.15;4.07;;;27.00;47.30;;;;;;5110071;28;23455;-74
2021/06/07 12:15:59;;;;;;;8.13;3.80;;;27.20;46.70;;;;;;5109652;28;20877;-77
2021/06/07 12:18:38;;;;;;;5.03;3.03;;;27.40;46.30;;;;;;5109138;28;20783;-73
2021/06/07 12:21:07;;;;;;;9.00;5.32;;;27.50;45.00;;;;;;5107152;28;20408;-75
2021/06/07 12:23:37;;;;;;;9.95;6.43;;;27.60;45.30;;;;;;5107470;28;20412;-78
2021/06/07 12:29:26;;;;;;;8.88;5.60;;;27.80;45.30;;;;;;5103074;28;20465;-76
2021/06/07 12:32:16;;;;;;;10.35;4.00;;;27.90;44.30;;;;;;5101066;28;20436;-75
2021/06/07 12:35:16;;;;;;;7.85;3.97;;;28.10;42.90;;;;;;5102324;28;20520;-74
2021/06/07 12:37:46;;;;;;;5.45;2.40;;;28.20;43.20;;;;;;5032965;28;20462;-74
2021/06/07 12:40:22;;;;;;;7.55;2.90;;;28.20;41.30;;;;;;5026667;28;20521;-74
2021/06/07 12:42:51;;;;;;;7.85;2.95;;;28.30;41.50;;;;;;5067837;28;20437;-75
2021/06/07 12:45:22;;;;;;;6.80;2.15;;;28.40;42.00;;;;;;5136621;27;20793;-75
2021/06/07 12:47:52;;;;;;;7.30;2.20;;;28.50;40.20;;;;;;5102016;28;20899;-75
2021/06/07 12:50:25;;;;;;;9.10;2.05;;;28.70;39.70;;;;;;5106126;28;20428;-76
2021/06/07 12:52:54;;;;;;;7.60;2.30;;;28.70;39.30;;;;;;5102183;28;20431;-76
2021/06/07 12:55:23;;;;;;;6.10;2.03;;;28.80;39.70;;;;;;5102610;28;20434;-78
2021/06/07 12:57:50;;;;;;;9.57;2.30;;;28.90;40.20;;;;;;5103370;28;22539;-75
2021/06/07 13:00:26;;;;;;;4.17;2.33;;;29.00;39.70;;;;;;5108881;28;20777;-74